createdAt,value
2023-05-14T00:01:14.909Z,15.80
2023-05-14T00:06:18.544Z,15.70
2023-05-14T00:11:21.863Z,17.40
2023-05-14T00:16:25.548Z,20.40
2023-05-14T00:21:28.999Z,23.70
2023-05-14T00:26:32.489Z,20.70
2023-05-14T00:31:36.105Z,19.10
2023-05-14T00:36:39.550Z,18.80
2023-05-14T00:41:42.921Z,19.90
2023-05-14T00:46:46.511Z,21.00
2023-05-14T00:51:50.320Z,18.20
2023-05-14T00:56:57.157Z,20.40
2023-05-14T01:02:00.710Z,17.30
2023-05-14T01:07:17.796Z,18.90
2023-05-14T01:12:29.947Z,18.10
2023-05-14T01:17:38.718Z,18.90
2023-05-14T01:22:47.900Z,22.90
2023-05-14T01:28:04.084Z,19.00
2023-05-14T01:33:13.526Z,21.30
2023-05-14T01:38:19.153Z,19.00
2023-05-14T01:43:25.642Z,20.10
2023-05-14T01:48:30.126Z,18.30
2023-05-14T01:53:35.061Z,19.40
2023-05-14T01:58:58.652Z,21.40
2023-05-14T02:04:02.181Z,19.10
2023-05-14T02:09:05.748Z,20.10
2023-05-14T02:14:09.208Z,19.70
2023-05-14T02:19:12.815Z,19.00
2023-05-14T02:24:16.121Z,16.90
2023-05-14T02:29:19.645Z,16.90
2023-05-14T02:34:23.512Z,18.60
2023-05-14T02:39:27.191Z,16.40
2023-05-14T02:44:31.907Z,29.80
2023-05-14T02:49:35.279Z,19.10
2023-05-14T02:54:38.640Z,18.60
2023-05-14T02:59:41.853Z,17.10
2023-05-14T03:04:45.631Z,19.40
2023-05-14T03:09:49.009Z,18.10
2023-05-14T03:14:52.278Z,18.30
2023-05-14T03:19:55.674Z,17.20
2023-05-14T03:24:59.125Z,20.90
2023-05-14T03:30:02.526Z,18.20
2023-05-14T03:35:06.620Z,21.60
2023-05-14T03:40:21.758Z,21.80
2023-05-14T03:45:27.127Z,22.40
2023-05-14T03:50:30.712Z,19.00
2023-05-14T03:55:34.170Z,24.50
2023-05-14T04:00:38.091Z,23.00
2023-05-14T04:05:41.549Z,22.50
2023-05-14T04:10:47.997Z,26.10
2023-05-14T04:15:51.699Z,26.90
2023-05-14T04:20:55.009Z,21.50
2023-05-14T04:25:58.883Z,23.10
2023-05-14T04:31:02.121Z,26.80
2023-05-14T04:36:05.964Z,24.70
2023-05-14T04:41:09.188Z,27.30
2023-05-14T04:46:14.087Z,26.90
2023-05-14T04:51:17.573Z,25.40
2023-05-14T04:56:21.597Z,27.90
2023-05-14T05:01:25.064Z,26.70
2023-05-14T05:06:28.582Z,26.10
2023-05-14T05:11:31.821Z,25.10
2023-05-14T05:16:35.392Z,23.20
2023-05-14T05:21:40.909Z,24.60
2023-05-14T05:26:44.311Z,23.50
2023-05-14T05:31:48.635Z,22.10
2023-05-14T05:36:52.003Z,27.80
2023-05-14T05:41:55.321Z,28.00
2023-05-14T05:46:58.763Z,23.70
2023-05-14T05:52:02.219Z,22.50
2023-05-14T05:57:08.811Z,22.40
2023-05-14T06:02:12.073Z,22.50
2023-05-14T06:07:15.437Z,22.20
2023-05-14T06:12:18.630Z,19.70
2023-05-14T06:17:22.305Z,20.00
2023-05-14T06:22:25.676Z,19.60
2023-05-14T06:27:28.911Z,19.20
2023-05-14T06:32:32.334Z,20.20
2023-05-14T06:37:50.415Z,16.10
2023-05-14T06:42:56.344Z,13.70
2023-05-14T06:47:59.643Z,14.40
2023-05-14T06:53:03.059Z,12.90
2023-05-14T06:58:10.567Z,14.10
2023-05-14T07:03:13.860Z,13.20
2023-05-14T07:08:17.198Z,11.60
2023-05-14T07:13:20.577Z,13.60
2023-05-14T07:18:24.239Z,9.00
2023-05-14T07:23:27.566Z,8.30
2023-05-14T07:28:30.786Z,9.40
2023-05-14T07:33:34.122Z,8.40
2023-05-14T07:38:38.002Z,9.40
2023-05-14T07:43:41.294Z,9.50
2023-05-14T07:48:44.528Z,7.20
2023-05-14T07:53:47.798Z,8.50
2023-05-14T07:58:51.627Z,5.10
2023-05-14T08:03:55.118Z,6.80
2023-05-14T08:08:58.475Z,6.30
2023-05-14T08:14:01.678Z,6.90
2023-05-14T08:19:05.011Z,7.80
2023-05-14T08:24:08.445Z,6.80
2023-05-14T08:29:13.416Z,7.40
2023-05-14T08:34:18.695Z,8.20
2023-05-14T08:39:22.262Z,8.80
2023-05-14T08:44:36.438Z,7.10
2023-05-14T08:49:45.116Z,5.70
2023-05-14T08:54:51.476Z,5.40
2023-05-14T08:59:55.015Z,5.40
2023-05-14T09:05:00.311Z,3.40
2023-05-14T09:10:04.694Z,5.30
2023-05-14T09:15:08.827Z,7.10
2023-05-14T09:20:13.166Z,6.80
2023-05-14T09:25:16.578Z,4.90
2023-05-14T09:30:19.926Z,6.00
2023-05-14T09:35:25.115Z,5.00
2023-05-14T09:40:29.190Z,6.20
2023-05-14T09:45:32.765Z,8.40
2023-05-14T09:50:42.998Z,6.50
2023-05-14T09:55:46.882Z,3.50
2023-05-14T10:01:13.505Z,4.70
2023-05-14T10:07:12.326Z,5.50
2023-05-14T10:12:58.766Z,5.00
2023-05-14T10:18:40.607Z,4.40
2023-05-14T10:24:05.710Z,5.80
2023-05-14T10:35:13.395Z,4.80
2023-05-14T10:40:24.949Z,3.60
2023-05-14T10:45:33.936Z,7.50
2023-05-14T10:50:40.097Z,5.10
2023-05-14T10:55:44.315Z,5.70
2023-05-14T11:00:50.168Z,9.50
2023-05-14T11:05:54.956Z,5.80
2023-05-14T11:10:58.410Z,5.10
2023-05-14T11:16:15.044Z,5.50
2023-05-14T11:21:25.533Z,5.70
2023-05-14T11:26:28.969Z,3.40
2023-05-14T11:31:32.431Z,6.20
2023-05-14T11:36:37.199Z,5.80
2023-05-14T11:41:45.770Z,7.00
2023-05-14T11:46:59.469Z,5.00
2023-05-14T11:52:07.456Z,3.40
2023-05-14T11:57:19.773Z,3.20
2023-05-14T12:02:23.518Z,3.50
2023-05-14T12:07:30.260Z,3.60
2023-05-14T12:12:37.425Z,4.50
2023-05-14T12:17:41.330Z,12.90
2023-05-14T12:22:44.591Z,4.00
2023-05-14T12:27:47.939Z,5.80
2023-05-14T12:32:53.065Z,3.60
2023-05-14T12:38:02.577Z,5.00
2023-05-14T12:43:08.463Z,5.30
2023-05-14T12:48:18.069Z,4.00
2023-05-14T12:53:33.217Z,4.50
2023-05-14T12:58:57.297Z,3.50
2023-05-14T13:04:01.023Z,5.20
2023-05-14T13:09:04.547Z,5.50
2023-05-14T13:14:17.858Z,3.10
2023-05-14T13:19:28.080Z,3.50
2023-05-14T13:24:31.585Z,3.50
2023-05-14T13:29:47.029Z,3.70
2023-05-14T13:34:53.132Z,3.70
2023-05-14T13:40:20.874Z,7.50
2023-05-14T13:50:38.822Z,4.80
2023-05-14T13:55:56.523Z,3.50
2023-05-14T14:01:00.026Z,5.80
2023-05-14T14:06:18.672Z,5.60
2023-05-14T14:11:22.101Z,3.30
2023-05-14T14:16:25.410Z,3.70
2023-05-14T14:21:51.815Z,6.40
2023-05-14T14:27:02.506Z,3.50
2023-05-14T14:32:06.349Z,5.10
2023-05-14T14:37:13.040Z,4.30
2023-05-14T14:47:25.719Z,4.60
2023-05-14T14:52:29.245Z,8.50
2023-05-14T15:03:33.515Z,4.80
2023-05-14T15:08:49.348Z,6.00
2023-05-14T15:13:59.096Z,3.60
2023-05-14T15:19:05.090Z,9.00
2023-05-14T15:24:25.248Z,5.70
2023-05-14T15:29:55.868Z,6.90
2023-05-14T15:35:01.989Z,6.80
2023-05-14T15:40:15.142Z,4.50
2023-05-14T15:45:21.225Z,6.90
2023-05-14T15:50:49.656Z,3.70
2023-05-14T15:56:05.684Z,4.10
2023-05-14T16:01:40.457Z,5.00
2023-05-14T16:07:01.874Z,5.60
2023-05-14T16:12:23.152Z,6.20
2023-05-14T16:18:25.353Z,6.10
2023-05-14T16:48:23.256Z,6.30
2023-05-14T16:54:05.672Z,4.30
2023-05-14T17:12:32.697Z,2.80
2023-05-14T17:18:53.191Z,6.30
2023-05-14T17:24:39.121Z,4.80
2023-05-14T17:29:59.898Z,3.90
2023-05-14T17:35:10.507Z,5.50
2023-05-14T17:41:03.228Z,3.50
2023-05-14T17:46:53.832Z,3.50
2023-05-14T17:52:33.377Z,5.40
2023-05-14T17:57:54.247Z,3.40
2023-05-14T18:03:37.832Z,3.50
2023-05-14T18:14:32.547Z,4.20
2023-05-14T18:19:36.776Z,3.30
2023-05-14T18:25:07.852Z,6.30
2023-05-14T18:30:39.945Z,7.20
2023-05-14T18:35:49.688Z,4.80
2023-05-14T18:40:52.940Z,6.60
2023-05-14T18:45:56.282Z,6.80
2023-05-14T18:51:18.192Z,6.00
2023-05-14T18:56:25.704Z,6.00
2023-05-14T19:01:51.406Z,7.90
2023-05-14T19:07:00.634Z,6.20
2023-05-14T19:12:09.943Z,6.10
2023-05-14T19:17:31.827Z,6.50
2023-05-14T19:40:50.925Z,7.00
2023-05-14T19:46:12.329Z,6.70
2023-05-14T19:51:15.730Z,5.10
2023-05-14T19:56:19.190Z,6.50
2023-05-14T20:01:22.752Z,7.80
2023-05-14T20:06:26.287Z,6.90
2023-05-14T20:11:29.453Z,6.10
2023-05-14T20:16:32.683Z,7.00
2023-05-14T20:21:35.989Z,4.50
2023-05-14T20:26:39.215Z,7.60
2023-05-14T20:31:42.554Z,10.10
2023-05-14T20:36:46.107Z,8.20
2023-05-14T20:41:49.598Z,9.40
2023-05-14T20:46:53.174Z,9.20
2023-05-14T20:51:56.602Z,11.10
2023-05-14T20:56:59.989Z,13.30
2023-05-14T21:02:03.940Z,7.70
2023-05-14T21:07:30.409Z,12.50
2023-05-14T21:12:33.700Z,10.60
2023-05-14T21:17:37.090Z,8.40
2023-05-14T21:22:40.825Z,11.20
2023-05-14T21:27:44.099Z,7.50
2023-05-14T21:32:47.623Z,8.30
2023-05-14T21:37:51.692Z,7.40
2023-05-14T21:42:55.039Z,7.60
2023-05-14T21:47:58.748Z,10.00
2023-05-14T21:53:12.559Z,6.90
2023-05-14T21:58:15.919Z,8.60
2023-05-14T22:03:19.531Z,9.90
2023-05-14T22:08:23.920Z,10.00
2023-05-14T22:13:27.518Z,10.30
2023-05-14T22:18:31.352Z,8.80
2023-05-14T22:23:34.549Z,9.60
2023-05-14T22:28:42.911Z,6.70
2023-05-14T22:33:46.215Z,8.00
2023-05-14T22:38:49.375Z,7.10
2023-05-14T22:43:52.660Z,6.10
2023-05-14T22:48:56.289Z,6.40
2023-05-14T22:53:59.448Z,8.30
2023-05-14T22:59:02.649Z,7.20
2023-05-14T23:04:06.025Z,8.70
2023-05-14T23:09:09.818Z,7.70
2023-05-14T23:14:13.012Z,7.60
2023-05-14T23:19:16.513Z,7.20
2023-05-14T23:24:19.942Z,12.20
2023-05-14T23:29:23.241Z,6.70
2023-05-14T23:34:27.242Z,6.70
2023-05-14T23:39:30.778Z,7.80
2023-05-14T23:44:34.059Z,6.60
2023-05-14T23:49:37.580Z,7.20
2023-05-14T23:54:40.925Z,7.10
2023-05-14T23:59:44.247Z,6.90
